Time;durP1;ratioP1;P1;durP2;ratioP2;P2;SDS_P1;SDS_P2;PMS_P1;PMS_P2;Temp;Humidity;BMP_temperature;BMP_pressure;BME280_temperature;BME280_humidity;BME280_pressure;Samples;Min_cycle;Max_cycle;Signal;HPM_P1;HPM_P2
2023/02/22 00:00:26;;;;;;;17.45;6.10;;;6.60;99.90;;;;;;5084890;28;20542;-64
2023/02/22 00:02:58;;;;;;;18.30;6.55;;;6.60;99.90;;;;;;5060220;28;20066;-64
2023/02/22 00:05:25;;;;;;;15.98;6.13;;;6.60;99.90;;;;;;5052905;28;20020;-65
2023/02/22 00:07:51;;;;;;;15.48;6.45;;;6.60;99.90;;;;;;5074686;28;20155;-64
2023/02/22 00:10:19;;;;;;;24.33;6.65;;;6.60;99.90;;;;;;5068914;28;20577;-64
2023/02/22 00:12:47;;;;;;;15.50;6.20;;;6.60;99.90;;;;;;5067677;28;20032;-64
2023/02/22 00:15:14;;;;;;;18.80;7.68;;;6.60;99.90;;;;;;5066714;28;20111;-64
2023/02/22 00:17:39;;;;;;;21.98;7.55;;;6.60;99.90;;;;;;5067755;28;20040;-64
2023/02/22 00:20:06;;;;;;;26.23;7.53;;;6.60;99.90;;;;;;5084931;28;20039;-64
2023/02/22 00:22:32;;;;;;;22.30;7.72;;;6.60;99.90;;;;;;5052908;28;20059;-64
2023/02/22 00:24:58;;;;;;;28.30;8.63;;;6.50;99.90;;;;;;5084738;28;20546;-64
2023/02/22 00:27:23;;;;;;;28.23;8.00;;;6.50;99.90;;;;;;5051319;28;20029;-65
2023/02/22 00:29:49;;;;;;;22.50;7.93;;;6.50;99.90;;;;;;5046383;28;20055;-64
2023/02/22 00:32:15;;;;;;;24.27;8.07;;;6.50;99.90;;;;;;5072317;28;20036;-64
2023/02/22 00:34:42;;;;;;;22.05;7.80;;;6.40;99.90;;;;;;5086217;28;20028;-64
2023/02/22 00:37:09;;;;;;;27.08;7.97;;;6.40;99.90;;;;;;5085347;28;20107;-64
2023/02/22 00:39:34;;;;;;;26.30;7.95;;;6.40;99.90;;;;;;5088679;28;20737;-64
2023/02/22 00:42:00;;;;;;;22.60;7.63;;;6.40;99.90;;;;;;5086742;28;20024;-63
2023/02/22 00:44:26;;;;;;;20.73;7.07;;;6.40;99.90;;;;;;5063207;28;20396;-64
2023/02/22 00:46:51;;;;;;;18.75;7.60;;;6.30;99.90;;;;;;5067457;28;20112;-64
2023/02/22 00:49:17;;;;;;;19.08;7.55;;;6.30;99.90;;;;;;5071483;28;20244;-64
2023/02/22 00:51:43;;;;;;;28.73;8.93;;;6.20;99.90;;;;;;5068965;28;20032;-64
2023/02/22 00:54:09;;;;;;;27.05;8.40;;;6.20;99.90;;;;;;5087981;28;20046;-63
2023/02/22 00:56:36;;;;;;;19.95;7.93;;;6.10;99.90;;;;;;5067507;28;20116;-64
2023/02/22 00:59:04;;;;;;;23.35;7.68;;;6.00;99.90;;;;;;5088410;28;20055;-63
2023/02/22 01:01:30;;;;;;;18.58;7.72;;;5.90;99.90;;;;;;5051304;28;20374;-64
2023/02/22 01:03:55;;;;;;;26.13;8.82;;;5.90;99.90;;;;;;5055539;28;20037;-64
2023/02/22 01:06:21;;;;;;;27.80;8.15;;;5.90;99.90;;;;;;5044133;28;20120;-65
2023/02/22 01:08:48;;;;;;;22.30;7.93;;;5.80;99.90;;;;;;5055365;28;20036;-64
2023/02/22 01:11:15;;;;;;;21.60;7.97;;;5.80;99.90;;;;;;5072649;28;20496;-65
2023/02/22 01:13:40;;;;;;;24.27;8.38;;;5.80;99.90;;;;;;5071687;28;20603;-64
2023/02/22 01:16:07;;;;;;;22.15;8.52;;;5.80;99.90;;;;;;5073414;28;20111;-73
2023/02/22 01:18:34;;;;;;;21.77;8.60;;;5.80;99.90;;;;;;5081955;28;20123;-73
2023/02/22 01:21:00;;;;;;;22.27;8.35;;;5.90;99.90;;;;;;5074896;28;20388;-72
2023/02/22 01:23:26;;;;;;;25.10;8.43;;;5.90;99.90;;;;;;5088268;28;20047;-73
2023/02/22 01:25:51;;;;;;;25.52;9.10;;;5.90;99.90;;;;;;5067242;28;20048;-73
2023/02/22 01:28:17;;;;;;;21.98;8.52;;;6.00;99.90;;;;;;5087379;28;20111;-72
2023/02/22 01:30:42;;;;;;;19.10;6.93;;;5.90;99.90;;;;;;5067189;28;20060;-72
2023/02/22 01:33:08;;;;;;;23.55;8.43;;;5.90;99.90;;;;;;5069807;28;20495;-74
2023/02/22 01:35:37;;;;;;;17.67;7.00;;;5.90;99.90;;;;;;5059569;28;20028;-75
2023/02/22 01:38:03;;;;;;;23.08;8.35;;;5.90;99.90;;;;;;5090838;28;20036;-76
2023/02/22 01:40:34;;;;;;;16.75;6.88;;;5.90;99.90;;;;;;5093110;28;20047;-75
2023/02/22 01:43:02;;;;;;;20.75;6.57;;;5.90;99.90;;;;;;5074601;28;20022;-74
2023/02/22 01:45:34;;;;;;;17.00;6.95;;;5.90;99.90;;;;;;5092948;28;20027;-75
2023/02/22 01:48:07;;;;;;;25.77;8.13;;;5.90;99.90;;;;;;5074787;28;20047;-74
2023/02/22 01:50:37;;;;;;;20.38;7.10;;;5.90;99.90;;;;;;5092674;28;20020;-75
2023/02/22 01:53:03;;;;;;;26.65;8.38;;;5.90;99.90;;;;;;5070350;28;20153;-74
2023/02/22 01:55:32;;;;;;;20.35;8.27;;;5.90;99.90;;;;;;5072396;28;20028;-75
2023/02/22 01:57:57;;;;;;;19.63;7.68;;;6.00;99.90;;;;;;5090169;28;20350;-75
2023/02/22 02:00:26;;;;;;;17.40;6.80;;;5.90;99.90;;;;;;5092747;28;20032;-74
2023/02/22 02:02:58;;;;;;;31.33;7.70;;;5.90;99.90;;;;;;5070504;28;20459;-75
2023/02/22 02:05:30;;;;;;;18.20;6.93;;;5.90;99.90;;;;;;5071559;28;20049;-75
2023/02/22 02:07:58;;;;;;;19.88;7.32;;;5.90;99.90;;;;;;5078227;28;20517;-75
2023/02/22 02:10:27;;;;;;;15.43;6.90;;;5.90;99.90;;;;;;5051655;28;20497;-74
2023/02/22 02:12:52;;;;;;;24.77;6.80;;;5.90;99.90;;;;;;5088822;28;20043;-76
2023/02/22 02:15:30;;;;;;;16.75;5.93;;;5.80;99.90;;;;;;5091983;28;20032;-75
2023/02/22 02:18:01;;;;;;;20.75;6.00;;;5.80;99.90;;;;;;5056311;28;20023;-75
2023/02/22 02:20:39;;;;;;;18.40;6.20;;;5.90;99.90;;;;;;5091090;28;20050;-75
2023/02/22 02:23:32;;;;;;;21.63;6.07;;;5.90;99.90;;;;;;5070225;28;20105;-75
2023/02/22 02:26:45;;;;;;;14.23;5.55;;;5.90;99.90;;;;;;5071888;28;20209;-75
2023/02/22 02:29:17;;;;;;;20.05;5.90;;;5.90;99.90;;;;;;5026100;28;20090;-75
2023/02/22 02:32:17;;;;;;;19.95;6.32;;;6.00;99.90;;;;;;5069554;28;20040;-75
2023/02/22 02:34:57;;;;;;;18.15;7.47;;;6.00;99.90;;;;;;5050835;28;20036;-75
2023/02/22 02:37:33;;;;;;;16.95;4.82;;;5.90;99.90;;;;;;5059047;28;20016;-74
2023/02/22 02:40:19;;;;;;;23.30;6.13;;;5.90;99.90;;;;;;5090200;28;20012;-75
2023/02/22 02:43:09;;;;;;;15.13;5.95;;;5.90;99.90;;;;;;5065035;28;20535;-74
2023/02/22 02:45:44;;;;;;;20.08;6.07;;;5.90;99.90;;;;;;5050737;28;20083;-75
2023/02/22 02:48:12;;;;;;;19.35;5.85;;;5.90;99.90;;;;;;5071721;28;20040;-74
2023/02/22 02:50:47;;;;;;;13.90;5.15;;;5.90;99.90;;;;;;5070943;28;20622;-74
2023/02/22 02:53:19;;;;;;;12.20;5.20;;;5.90;99.90;;;;;;5075890;28;20111;-74
2023/02/22 02:55:45;;;;;;;19.05;7.07;;;5.90;99.90;;;;;;5050369;28;20276;-74
2023/02/22 02:58:18;;;;;;;11.95;5.30;;;5.80;99.90;;;;;;5075952;28;20043;-74
2023/02/22 03:00:44;;;;;;;15.82;5.70;;;5.80;99.90;;;;;;5050272;28;20032;-75
2023/02/22 03:03:40;;;;;;;17.17;4.93;;;5.80;99.90;;;;;;5076539;28;20040;-74
2023/02/22 03:06:46;;;;;;;12.95;4.22;;;5.80;99.90;;;;;;5076837;28;20043;-74
2023/02/22 03:09:33;;;;;;;13.32;5.20;;;5.70;99.90;;;;;;5046074;28;20506;-75
2023/02/22 03:12:26;;;;;;;18.23;5.63;;;5.70;99.90;;;;;;5051959;28;20053;-75
2023/02/22 03:15:07;;;;;;;20.13;4.55;;;5.70;99.90;;;;;;5090500;28;20036;-74
2023/02/22 03:17:57;;;;;;;17.67;5.05;;;5.70;99.90;;;;;;5075095;28;20027;-75
2023/02/22 03:20:47;;;;;;;16.38;5.22;;;5.70;99.90;;;;;;5070439;28;20193;-75
2023/02/22 03:23:37;;;;;;;12.88;4.40;;;5.80;99.90;;;;;;5072816;28;20255;-74
2023/02/22 03:26:13;;;;;;;15.73;4.47;;;5.80;99.90;;;;;;5049743;28;20028;-74
2023/02/22 03:28:42;;;;;;;16.98;5.07;;;5.80;99.90;;;;;;5073023;28;20106;-75
2023/02/22 03:31:26;;;;;;;14.52;5.82;;;5.80;99.90;;;;;;5090063;28;20024;-74
2023/02/22 03:33:56;;;;;;;15.25;5.15;;;5.80;99.90;;;;;;5065403;28;20042;-74
2023/02/22 03:36:28;;;;;;;11.32;4.18;;;5.70;99.90;;;;;;5050059;28;20033;-75
2023/02/22 03:38:56;;;;;;;12.15;4.40;;;5.70;99.90;;;;;;5048246;28;20040;-75
2023/02/22 03:41:24;;;;;;;13.15;4.75;;;5.70;99.90;;;;;;5089665;28;20164;-75
2023/02/22 03:44:04;;;;;;;16.70;5.20;;;5.60;99.90;;;;;;5068401;28;20112;-76
2023/02/22 03:46:31;;;;;;;14.35;5.13;;;5.60;99.90;;;;;;5049715;28;20250;-75
2023/02/22 03:49:13;;;;;;;17.25;5.60;;;5.60;99.90;;;;;;5069287;28;20067;-75
2023/02/22 03:51:39;;;;;;;15.70;5.25;;;5.50;99.90;;;;;;5049206;28;20051;-76
2023/02/22 03:54:06;;;;;;;18.23;4.97;;;5.50;99.90;;;;;;5087046;28;20037;-75
2023/02/22 03:56:36;;;;;;;13.25;4.45;;;5.50;99.90;;;;;;5069949;28;20209;-75
2023/02/22 03:59:05;;;;;;;14.35;4.47;;;5.50;99.90;;;;;;5068730;28;20032;-75
2023/02/22 04:01:30;;;;;;;19.27;4.70;;;5.40;99.90;;;;;;5089523;28;20040;-76
2023/02/22 04:03:55;;;;;;;12.43;4.05;;;5.40;99.90;;;;;;5050241;28;20028;-75
2023/02/22 04:06:21;;;;;;;16.45;4.40;;;5.30;99.90;;;;;;5064777;28;20036;-75
2023/02/22 04:08:47;;;;;;;15.25;3.63;;;5.20;99.90;;;;;;5069953;28;20076;-75
2023/02/22 04:11:12;;;;;;;22.40;5.00;;;5.10;99.90;;;;;;5088473;28;20032;-74
2023/02/22 04:13:38;;;;;;;15.82;6.22;;;5.00;99.90;;;;;;5052426;28;20082;-75
2023/02/22 04:16:03;;;;;;;21.27;4.90;;;4.90;99.90;;;;;;5068022;28;20031;-75
2023/02/22 04:18:29;;;;;;;13.40;4.70;;;4.70;99.90;;;;;;5072552;28;20067;-75
2023/02/22 04:20:54;;;;;;;11.43;4.50;;;4.60;99.90;;;;;;5088112;28;20036;-75
2023/02/22 04:23:20;;;;;;;8.00;3.58;;;4.60;99.90;;;;;;5054635;28;20374;-74
2023/02/22 04:25:46;;;;;;;13.50;4.38;;;4.50;99.90;;;;;;5068079;28;20036;-75
2023/02/22 04:28:11;;;;;;;10.70;4.30;;;4.40;99.90;;;;;;5068678;28;20017;-75
2023/02/22 04:30:37;;;;;;;20.85;4.50;;;4.40;99.90;;;;;;5088194;28;20046;-74
2023/02/22 04:33:02;;;;;;;15.43;3.97;;;4.30;99.90;;;;;;5050978;28;20416;-74
2023/02/22 04:35:28;;;;;;;13.20;4.18;;;4.30;99.90;;;;;;5068048;28;20056;-75
2023/02/22 04:37:53;;;;;;;21.45;5.97;;;4.20;99.90;;;;;;5086365;28;20028;-75
2023/02/22 04:40:19;;;;;;;14.35;4.13;;;4.20;99.90;;;;;;5069123;28;20051;-75
2023/02/22 04:42:44;;;;;;;12.93;4.47;;;4.10;99.90;;;;;;5072232;28;20396;-75
2023/02/22 04:45:10;;;;;;;15.55;5.85;;;4.10;99.90;;;;;;5087842;28;20024;-74
2023/02/22 04:47:36;;;;;;;27.50;8.55;;;4.00;99.90;;;;;;5054347;28;20032;-74
2023/02/22 04:50:04;;;;;;;21.33;6.93;;;3.90;99.90;;;;;;5066261;28;20489;-73
2023/02/22 04:52:30;;;;;;;20.27;5.68;;;3.90;99.90;;;;;;5074230;28;20111;-74
2023/02/22 04:54:55;;;;;;;16.75;5.15;;;3.80;99.90;;;;;;5087683;28;20507;-74
2023/02/22 04:57:22;;;;;;;19.25;6.93;;;3.80;99.90;;;;;;5076019;28;20024;-74
2023/02/22 04:59:47;;;;;;;21.92;6.40;;;3.80;99.90;;;;;;5068454;28;20025;-74
2023/02/22 05:02:13;;;;;;;25.65;7.93;;;3.70;99.90;;;;;;5085216;28;20031;-74
2023/02/22 05:04:38;;;;;;;13.85;4.95;;;3.70;99.90;;;;;;5068452;28;20028;-56
2023/02/22 05:07:04;;;;;;;13.65;4.25;;;3.60;99.90;;;;;;5068192;28;20032;-56
2023/02/22 05:09:29;;;;;;;23.17;6.82;;;3.60;99.90;;;;;;5066900;28;20550;-54
2023/02/22 05:11:55;;;;;;;20.60;6.35;;;3.60;99.90;;;;;;5084582;28;20035;-54
2023/02/22 05:14:20;;;;;;;22.25;6.95;;;3.50;99.90;;;;;;5067921;28;20037;-60
2023/02/22 05:16:48;;;;;;;22.33;6.72;;;3.50;99.90;;;;;;5085464;28;20090;-59
2023/02/22 05:19:14;;;;;;;12.93;5.00;;;3.50;99.90;;;;;;5072295;28;20035;-59
2023/02/22 05:21:39;;;;;;;22.65;8.00;;;3.40;99.90;;;;;;5068590;28;20029;-60
2023/02/22 05:24:05;;;;;;;19.45;5.93;;;3.40;99.90;;;;;;5089735;28;20028;-64
2023/02/22 05:26:31;;;;;;;18.75;7.72;;;3.30;99.90;;;;;;5069444;28;20233;-64
2023/02/22 05:28:56;;;;;;;16.42;5.68;;;3.30;99.90;;;;;;5070844;28;20078;-64
2023/02/22 05:31:22;;;;;;;19.40;7.35;;;3.20;99.90;;;;;;5088297;28;20050;-64
2023/02/22 05:33:47;;;;;;;19.42;6.32;;;3.20;99.90;;;;;;5091185;28;20024;-64
2023/02/22 05:36:13;;;;;;;25.15;6.00;;;3.20;99.90;;;;;;5069108;28;20044;-64
2023/02/22 05:38:42;;;;;;;19.67;5.47;;;3.10;99.90;;;;;;5070720;28;20101;-64
2023/02/22 05:41:09;;;;;;;12.25;4.85;;;3.10;99.90;;;;;;5088607;28;20012;-64
2023/02/22 05:43:35;;;;;;;15.32;4.78;;;3.10;99.90;;;;;;5090886;28;20012;-64
2023/02/22 05:46:00;;;;;;;12.48;4.63;;;3.10;99.90;;;;;;5069484;28;20567;-63
2023/02/22 05:48:26;;;;;;;22.67;4.82;;;3.10;99.90;;;;;;5070377;28;20025;-64
2023/02/22 05:50:51;;;;;;;11.25;4.43;;;3.00;99.90;;;;;;5082548;28;20036;-63
2023/02/22 05:53:17;;;;;;;14.82;4.40;;;3.00;99.90;;;;;;5090561;28;20036;-64
2023/02/22 05:55:42;;;;;;;13.32;3.92;;;3.00;99.90;;;;;;5069059;28;20535;-62
2023/02/22 05:58:07;;;;;;;22.00;5.72;;;2.90;99.90;;;;;;5070501;28;20029;-64
2023/02/22 06:00:33;;;;;;;15.32;4.50;;;2.80;99.90;;;;;;5089591;28;20031;-64
2023/02/22 06:03:01;;;;;;;17.73;4.97;;;2.80;99.90;;;;;;5050246;28;20025;-64
2023/02/22 06:05:28;;;;;;;16.55;4.38;;;2.80;99.90;;;;;;5078428;28;20043;-64
2023/02/22 06:07:54;;;;;;;14.77;4.20;;;2.80;99.90;;;;;;5076690;28;20066;-64
2023/02/22 06:10:20;;;;;;;10.70;3.08;;;2.80;99.90;;;;;;5070543;28;20393;-64
2023/02/22 06:12:47;;;;;;;14.82;4.35;;;2.90;99.90;;;;;;5070445;28;20040;-65
2023/02/22 06:15:17;;;;;;;15.35;4.50;;;2.90;99.90;;;;;;5089354;28;20501;-64
2023/02/22 06:17:43;;;;;;;11.20;3.63;;;3.00;99.90;;;;;;5062902;28;20033;-64
2023/02/22 06:20:14;;;;;;;22.88;4.63;;;3.10;99.90;;;;;;5077823;28;20058;-64
2023/02/22 06:22:40;;;;;;;14.85;4.60;;;3.20;99.90;;;;;;5067463;28;20029;-64
2023/02/22 06:25:06;;;;;;;17.58;5.20;;;3.10;99.90;;;;;;5071881;28;20028;-63
2023/02/22 06:27:33;;;;;;;21.42;5.70;;;3.20;99.90;;;;;;5088253;28;20074;-64
2023/02/22 06:29:59;;;;;;;14.27;4.25;;;3.20;99.90;;;;;;5070629;28;20407;-64
2023/02/22 06:32:25;;;;;;;19.33;4.63;;;3.10;99.90;;;;;;5088157;28;20111;-64
2023/02/22 06:34:50;;;;;;;15.70;5.07;;;3.20;99.90;;;;;;5067022;28;20108;-64
2023/02/22 06:37:16;;;;;;;12.25;4.80;;;3.20;99.90;;;;;;5068275;28;20373;-64
2023/02/22 06:39:41;;;;;;;18.20;4.70;;;3.20;99.90;;;;;;5083746;28;20044;-64
2023/02/22 06:42:07;;;;;;;19.98;5.68;;;3.20;99.90;;;;;;5088262;28;20082;-65
2023/02/22 06:44:32;;;;;;;15.63;4.30;;;3.20;99.90;;;;;;5066480;28;20569;-64
2023/02/22 06:46:58;;;;;;;13.93;4.05;;;3.30;99.90;;;;;;5068096;28;20024;-65
2023/02/22 06:49:25;;;;;;;13.48;3.72;;;3.40;99.90;;;;;;5087646;28;20024;-64
2023/02/22 06:51:51;;;;;;;9.13;3.63;;;3.60;99.90;;;;;;5088290;28;20119;-64
2023/02/22 06:54:17;;;;;;;11.70;3.53;;;3.80;99.90;;;;;;5067378;28;20182;-64
2023/02/22 06:56:42;;;;;;;13.95;3.92;;;4.10;99.90;;;;;;5066134;28;20035;-65
2023/02/22 06:59:08;;;;;;;9.48;3.88;;;4.40;99.90;;;;;;5087090;28;20051;-64
2023/02/22 07:01:33;;;;;;;16.88;5.13;;;4.90;99.90;;;;;;5048786;28;20035;-64
2023/02/22 07:03:59;;;;;;;17.25;5.80;;;5.30;99.90;;;;;;5067227;28;20089;-62
2023/02/22 07:06:25;;;;;;;21.27;6.63;;;5.70;99.90;;;;;;5065113;28;20381;-65
2023/02/22 07:08:50;;;;;;;24.10;6.95;;;5.90;99.90;;;;;;5086716;28;20047;-64
2023/02/22 07:11:16;;;;;;;20.70;6.38;;;6.10;99.90;;;;;;5054946;28;20036;-64
2023/02/22 07:13:42;;;;;;;15.88;5.60;;;6.20;99.90;;;;;;5086011;28;20044;-64
2023/02/22 07:16:07;;;;;;;21.67;6.20;;;6.40;99.90;;;;;;5051422;28;20047;-65
2023/02/22 07:18:33;;;;;;;18.67;4.57;;;6.60;99.90;;;;;;5066838;28;20449;-64
2023/02/22 07:20:58;;;;;;;19.02;5.30;;;6.80;99.90;;;;;;5071563;28;20450;-65
2023/02/22 07:23:24;;;;;;;18.73;4.85;;;7.00;99.90;;;;;;5087139;28;20028;-64
2023/02/22 07:25:49;;;;;;;13.65;4.38;;;7.10;99.90;;;;;;5054384;28;20033;-65
2023/02/22 07:28:15;;;;;;;11.73;4.57;;;7.10;99.90;;;;;;5066608;28;20042;-65
2023/02/22 07:30:41;;;;;;;19.85;4.88;;;7.10;99.90;;;;;;5084709;28;20077;-65
2023/02/22 07:33:10;;;;;;;18.40;4.78;;;7.10;99.90;;;;;;5067114;28;20028;-64
2023/02/22 07:35:37;;;;;;;13.82;4.65;;;6.90;99.90;;;;;;5085175;28;20232;-65
2023/02/22 07:38:07;;;;;;;21.75;5.03;;;6.90;99.90;;;;;;5067401;28;20552;-64
2023/02/22 07:40:33;;;;;;;15.15;4.85;;;6.90;99.90;;;;;;5084817;28;20039;-64
2023/02/22 07:43:04;;;;;;;20.58;5.38;;;6.90;99.90;;;;;;5067635;28;20021;-65
2023/02/22 07:45:32;;;;;;;21.23;4.78;;;6.80;99.90;;;;;;5084843;28;20464;-64
2023/02/22 07:48:00;;;;;;;20.58;4.93;;;6.80;99.90;;;;;;5067383;28;20266;-64
2023/02/22 07:50:29;;;;;;;14.43;4.65;;;6.90;99.90;;;;;;5084894;28;20077;-64
2023/02/22 07:52:56;;;;;;;16.45;4.55;;;7.00;99.90;;;;;;5066965;28;20037;-64
2023/02/22 07:55:24;;;;;;;13.45;4.22;;;7.00;99.90;;;;;;5084893;28;20220;-65
2023/02/22 07:57:52;;;;;;;15.32;4.72;;;7.10;99.90;;;;;;5063194;28;20086;-64
2023/02/22 08:00:24;;;;;;;18.83;4.50;;;7.30;99.90;;;;;;5083940;28;20086;-66
2023/02/22 08:02:49;;;;;;;16.27;4.18;;;7.50;99.90;;;;;;5066974;28;20028;-65
2023/02/22 08:05:15;;;;;;;13.25;4.15;;;7.70;99.90;;;;;;5080537;28;20530;-65
2023/02/22 08:07:42;;;;;;;14.93;4.60;;;8.00;99.90;;;;;;5085041;28;20114;-64
2023/02/22 08:10:16;;;;;;;16.38;4.30;;;8.10;99.90;;;;;;5067149;28;20031;-65
2023/02/22 08:12:42;;;;;;;17.52;4.60;;;8.20;99.90;;;;;;5065689;28;20036;-66
2023/02/22 08:15:13;;;;;;;13.85;4.20;;;8.20;98.60;;;;;;5065394;28;20029;-65
2023/02/22 08:17:39;;;;;;;13.75;3.20;;;8.30;98.70;;;;;;5066666;28;20020;-65
2023/02/22 08:20:05;;;;;;;14.63;4.00;;;8.60;99.90;;;;;;5084033;28;20108;-65
2023/02/22 08:22:30;;;;;;;23.75;4.88;;;8.90;95.40;;;;;;5086606;28;20208;-65
2023/02/22 08:24:56;;;;;;;19.50;4.82;;;8.90;87.60;;;;;;5067253;28;20032;-65
2023/02/22 08:27:24;;;;;;;19.60;4.72;;;8.80;90.90;;;;;;5063898;28;20066;-66
2023/02/22 08:29:50;;;;;;;16.13;4.00;;;9.00;87.60;;;;;;5086357;28;20024;-65
2023/02/22 08:32:15;;;;;;;26.48;5.28;;;9.10;88.00;;;;;;5046522;28;20060;-65
2023/02/22 08:34:41;;;;;;;20.33;5.38;;;9.10;83.20;;;;;;5065605;28;20127;-65
2023/02/22 08:37:07;;;;;;;17.58;3.40;;;9.20;84.30;;;;;;5066072;28;20385;-65
2023/02/22 08:39:32;;;;;;;11.70;3.28;;;9.40;77.00;;;;;;5085914;28;20036;-65
2023/02/22 08:41:58;;;;;;;13.68;3.85;;;9.40;79.10;;;;;;5048560;28;20036;-64
2023/02/22 08:44:23;;;;;;;13.23;3.15;;;9.40;76.80;;;;;;5065892;28;20036;-65
2023/02/22 08:46:50;;;;;;;11.52;2.65;;;9.60;81.00;;;;;;5068213;28;20040;-66
2023/02/22 08:49:16;;;;;;;11.98;2.92;;;9.50;78.20;;;;;;5085922;28;20067;-65
2023/02/22 08:51:42;;;;;;;15.20;4.00;;;9.50;77.80;;;;;;5051527;28;20044;-65
2023/02/22 08:54:07;;;;;;;18.52;4.00;;;9.50;72.10;;;;;;5069517;28;20028;-65
2023/02/22 08:56:33;;;;;;;13.27;3.13;;;9.30;76.90;;;;;;5074593;28;20035;-65
2023/02/22 08:58:58;;;;;;;16.40;3.38;;;9.40;78.10;;;;;;5089276;28;20028;-65
2023/02/22 09:01:24;;;;;;;10.23;2.72;;;9.40;77.60;;;;;;5055874;28;20355;-65
2023/02/22 09:03:50;;;;;;;17.70;3.17;;;9.40;77.10;;;;;;5088979;28;20151;-65
2023/02/22 09:06:17;;;;;;;13.30;3.10;;;9.30;72.90;;;;;;5063750;28;20052;-65
2023/02/22 09:08:43;;;;;;;22.92;3.97;;;9.30;74.60;;;;;;5049989;28;20040;-64
2023/02/22 09:11:08;;;;;;;13.43;2.90;;;9.40;77.60;;;;;;5088768;28;20466;-64
2023/02/22 09:13:34;;;;;;;15.77;3.55;;;9.50;79.20;;;;;;5051425;28;20044;-64
2023/02/22 09:15:59;;;;;;;15.90;3.15;;;9.50;76.80;;;;;;5069244;28;20078;-56
2023/02/22 09:18:26;;;;;;;15.35;3.15;;;9.60;77.60;;;;;;5071170;28;20032;-57
2023/02/22 09:20:52;;;;;;;17.77;3.30;;;9.60;78.50;;;;;;5089572;28;20035;-58
2023/02/22 09:23:19;;;;;;;10.10;2.60;;;9.70;79.60;;;;;;5053189;28;20223;-55
2023/02/22 09:25:46;;;;;;;16.63;4.03;;;9.80;77.80;;;;;;5069383;28;20029;-61
2023/02/22 09:28:11;;;;;;;15.55;3.50;;;9.70;77.70;;;;;;5073147;28;20108;-57
2023/02/22 09:30:37;;;;;;;12.32;3.35;;;9.70;77.70;;;;;;5089197;28;20111;-56
2023/02/22 09:33:08;;;;;;;14.13;3.17;;;9.70;76.60;;;;;;5055097;28;20108;-57
2023/02/22 09:35:34;;;;;;;13.02;2.80;;;9.70;77.70;;;;;;5049747;28;20025;-57
2023/02/22 09:38:01;;;;;;;14.23;3.58;;;9.80;78.50;;;;;;5073936;28;20093;-56
2023/02/22 09:40:29;;;;;;;15.52;3.65;;;9.80;77.40;;;;;;5089284;28;20444;-59
2023/02/22 09:43:15;;;;;;;19.15;3.70;;;9.70;76.40;;;;;;5055809;28;20072;-55
2023/02/22 09:45:55;;;;;;;14.18;2.65;;;9.60;74.00;;;;;;5049431;28;20032;-59
2023/02/22 09:48:21;;;;;;;18.48;4.38;;;9.60;78.90;;;;;;5063178;28;20032;-57
2023/02/22 09:50:49;;;;;;;17.92;3.65;;;9.60;74.80;;;;;;5088980;28;20024;-58
2023/02/22 09:53:28;;;;;;;12.55;3.30;;;9.60;78.30;;;;;;5052760;28;20501;-57
2023/02/22 09:56:00;;;;;;;24.27;4.53;;;9.60;80.00;;;;;;5049550;28;20035;-58
2023/02/22 09:58:35;;;;;;;22.65;3.67;;;9.60;77.20;;;;;;5063406;28;20130;-59
2023/02/22 10:01:25;;;;;;;14.52;3.28;;;9.50;78.30;;;;;;5049337;28;20043;-58
2023/02/22 10:04:17;;;;;;;9.75;3.22;;;9.60;78.90;;;;;;5067142;28;20025;-58
2023/02/22 10:07:00;;;;;;;20.17;3.92;;;9.60;79.50;;;;;;5044020;28;20044;-57
2023/02/22 10:09:29;;;;;;;12.55;2.75;;;9.70;79.40;;;;;;5089311;28;20133;-56
2023/02/22 10:11:59;;;;;;;12.98;3.28;;;9.70;80.50;;;;;;5065642;28;20023;-57
2023/02/22 10:15:11;;;;;;;15.77;3.17;;;9.80;81.20;;;;;;5068901;28;20021;-58
2023/02/22 10:17:56;;;;;;;15.55;3.10;;;9.80;77.70;;;;;;5055923;28;20055;-58
2023/02/22 10:20:41;;;;;;;24.10;3.35;;;9.80;80.30;;;;;;5062613;28;20039;-56
2023/02/22 10:23:19;;;;;;;16.30;3.42;;;9.80;77.80;;;;;;5060478;28;20025;-56
2023/02/22 10:25:50;;;;;;;12.73;3.42;;;9.80;79.60;;;;;;5048949;28;20057;-57
2023/02/22 10:28:24;;;;;;;9.13;2.35;;;9.90;80.00;;;;;;5062351;28;20032;-58
2023/02/22 10:30:57;;;;;;;15.73;3.10;;;9.90;81.30;;;;;;5048785;28;20497;-57
2023/02/22 10:33:29;;;;;;;19.15;3.65;;;10.00;79.30;;;;;;5057178;28;20511;-57
2023/02/22 10:35:55;;;;;;;20.83;3.30;;;9.90;78.40;;;;;;5069341;28;20031;-56
2023/02/22 10:38:27;;;;;;;13.48;3.90;;;9.80;79.10;;;;;;5086922;28;20024;-58
2023/02/22 10:41:07;;;;;;;18.10;3.13;;;9.90;78.40;;;;;;5063919;28;20071;-55
2023/02/22 10:43:35;;;;;;;14.20;3.30;;;9.90;79.90;;;;;;5048527;28;20477;-57
2023/02/22 10:46:04;;;;;;;13.80;2.72;;;10.00;77.90;;;;;;5073261;28;20039;-57
2023/02/22 10:48:33;;;;;;;12.18;2.75;;;10.00;78.70;;;;;;5088405;28;20032;-58
2023/02/22 10:51:00;;;;;;;11.68;2.60;;;10.20;80.80;;;;;;5054007;28;20382;-56
2023/02/22 10:53:27;;;;;;;13.95;2.60;;;10.20;76.90;;;;;;5068028;28;20147;-57
2023/02/22 10:56:13;;;;;;;13.98;3.58;;;10.40;79.10;;;;;;5074374;28;20116;-57
2023/02/22 10:59:01;;;;;;;12.88;2.95;;;10.40;73.80;;;;;;5048541;28;20028;-57
2023/02/22 11:01:39;;;;;;;15.15;2.53;;;10.40;73.20;;;;;;5066621;28;20615;-56
2023/02/22 11:04:05;;;;;;;15.00;3.00;;;10.50;72.70;;;;;;5048379;28;20035;-56
2023/02/22 11:06:32;;;;;;;13.50;3.47;;;10.50;72.10;;;;;;5064392;28;20032;-56
2023/02/22 11:09:24;;;;;;;18.73;4.32;;;10.40;70.70;;;;;;5087811;28;20032;-59
2023/02/22 11:12:07;;;;;;;17.42;3.65;;;10.30;68.00;;;;;;5063855;28;20037;-56
2023/02/22 11:14:33;;;;;;;13.57;3.00;;;10.40;71.70;;;;;;5047234;28;20048;-56
2023/02/22 11:17:04;;;;;;;18.50;3.38;;;10.40;70.30;;;;;;5088362;28;20160;-55
2023/02/22 11:19:31;;;;;;;15.07;3.67;;;10.30;69.20;;;;;;5046964;28;20049;-56
2023/02/22 11:22:08;;;;;;;19.42;4.65;;;10.20;71.30;;;;;;5088138;28;20028;-57
2023/02/22 11:24:43;;;;;;;18.50;4.20;;;10.30;71.90;;;;;;5048079;28;20033;-62
2023/02/22 11:27:22;;;;;;;13.02;2.38;;;10.30;69.90;;;;;;5088062;28;20051;-59
2023/02/22 11:29:49;;;;;;;13.77;2.97;;;10.50;69.30;;;;;;5051816;28;20060;-61
2023/02/22 11:32:20;;;;;;;18.42;3.30;;;10.50;69.60;;;;;;5087996;28;20365;-59
2023/02/22 11:34:46;;;;;;;11.90;2.60;;;10.60;69.80;;;;;;5050982;28;20106;-59
2023/02/22 11:37:35;;;;;;;12.60;3.22;;;10.70;68.90;;;;;;5087971;28;20469;-59
2023/02/22 11:40:21;;;;;;;8.65;2.30;;;10.80;65.20;;;;;;5055149;28;20036;-57
2023/02/22 11:42:48;;;;;;;11.52;2.83;;;10.80;68.20;;;;;;5087879;28;20100;-59
2023/02/22 11:45:16;;;;;;;12.13;2.67;;;11.00;66.80;;;;;;5065825;28;20024;-59
2023/02/22 11:47:59;;;;;;;11.75;3.35;;;11.00;67.00;;;;;;5067604;28;20017;-59
2023/02/22 11:51:18;;;;;;;16.65;3.42;;;11.10;67.70;;;;;;5061750;28;20103;-59
2023/02/22 11:54:06;;;;;;;15.70;3.38;;;10.90;64.80;;;;;;5047389;28;20235;-59
2023/02/22 11:56:43;;;;;;;18.73;3.45;;;11.10;64.20;;;;;;5042560;28;20068;-59
2023/02/22 11:59:20;;;;;;;12.57;2.72;;;11.00;63.80;;;;;;5047206;28;20037;-58
2023/02/22 12:01:46;;;;;;;11.60;2.92;;;10.90;66.00;;;;;;5064770;28;20520;-59
2023/02/22 12:04:48;;;;;;;12.30;3.50;;;11.00;67.00;;;;;;5086765;28;20028;-59
2023/02/22 12:07:43;;;;;;;13.27;3.17;;;11.10;65.70;;;;;;5053175;28;20043;-58
2023/02/22 12:10:32;;;;;;;10.98;3.05;;;11.10;64.70;;;;;;5085492;28;20093;-59
2023/02/22 12:13:22;;;;;;;11.60;3.08;;;11.20;65.40;;;;;;5047532;28;20033;-59
2023/02/22 12:15:57;;;;;;;9.50;3.38;;;11.30;66.10;;;;;;5060393;28;20500;-59
2023/02/22 12:18:38;;;;;;;15.02;3.45;;;11.30;64.70;;;;;;5047500;28;20025;-59
2023/02/22 12:21:18;;;;;;;20.20;4.20;;;11.30;64.50;;;;;;5062588;28;20033;-58
2023/02/22 12:24:08;;;;;;;14.23;3.72;;;11.30;62.80;;;;;;5047839;28;20106;-59
2023/02/22 12:26:40;;;;;;;10.98;3.25;;;11.40;64.70;;;;;;5048392;28;20025;-58
2023/02/22 12:29:14;;;;;;;16.63;3.50;;;11.50;65.60;;;;;;5050765;28;20021;-58
2023/02/22 12:31:49;;;;;;;10.65;3.15;;;11.40;62.40;;;;;;5078156;28;20103;-60
2023/02/22 12:34:20;;;;;;;20.77;3.27;;;11.40;65.60;;;;;;5053160;28;20067;-60
2023/02/22 12:36:50;;;;;;;14.00;3.10;;;11.50;65.00;;;;;;5091509;28;20396;-60
2023/02/22 12:39:45;;;;;;;16.00;3.90;;;11.40;64.50;;;;;;5076623;28;20111;-59
2023/02/22 12:42:18;;;;;;;11.90;3.30;;;11.30;61.80;;;;;;5051323;28;20032;-59
2023/02/22 12:44:51;;;;;;;11.45;4.40;;;11.00;64.70;;;;;;5061465;28;20036;-60
2023/02/22 12:47:25;;;;;;;12.07;3.38;;;11.00;63.40;;;;;;5091584;28;20050;-60
2023/02/22 12:50:04;;;;;;;13.50;3.65;;;11.00;65.10;;;;;;5062982;28;20020;-60
2023/02/22 12:52:44;;;;;;;11.93;3.47;;;11.10;63.10;;;;;;5091699;28;20360;-60
2023/02/22 12:55:21;;;;;;;19.20;3.63;;;11.00;64.10;;;;;;5068182;28;20030;-59
2023/02/22 12:58:00;;;;;;;15.77;4.13;;;10.80;64.70;;;;;;5051221;28;20029;-60
2023/02/22 13:00:36;;;;;;;17.02;3.72;;;10.80;66.00;;;;;;5072422;28;20060;-59
2023/02/22 13:03:27;;;;;;;13.13;3.28;;;10.80;65.00;;;;;;5051097;28;20074;-59